Time;durP1;ratioP1;P1;durP2;ratioP2;P2;SDS_P1;SDS_P2;PMS_P1;PMS_P2;Temp;Humidity;BMP_temperature;BMP_pressure;BME280_temperature;BME280_humidity;BME280_pressure;Samples;Min_cycle;Max_cycle;Signal;HPM_P1;HPM_P2
2024/02/26 00:02:02;;;;;;;4.68;1.65;;;6.50;99.90;;;;;;5045491;28;20029;-56
2024/02/26 00:04:28;;;;;;;2.17;1.75;;;6.60;99.90;;;;;;5039866;28;20109;-54
2024/02/26 00:06:54;;;;;;;1.30;1.20;;;6.60;99.90;;;;;;5035764;28;20612;-55
2024/02/26 00:09:20;;;;;;;2.85;2.17;;;6.60;99.90;;;;;;5032421;28;20060;-55
2024/02/26 00:11:45;;;;;;;1.92;1.65;;;6.60;99.90;;;;;;5041205;28;20067;-56
2024/02/26 00:14:11;;;;;;;3.42;1.85;;;6.50;99.90;;;;;;5032525;28;20430;-59
2024/02/26 00:16:40;;;;;;;2.65;2.00;;;6.50;99.90;;;;;;5042950;28;20067;-56
2024/02/26 00:19:06;;;;;;;2.45;1.77;;;6.50;99.90;;;;;;5047207;28;20069;-56
2024/02/26 00:21:31;;;;;;;1.92;1.70;;;6.50;99.90;;;;;;5046881;28;20052;-55
2024/02/26 00:23:57;;;;;;;2.80;1.90;;;6.50;99.90;;;;;;5035498;28;20507;-55
2024/02/26 00:26:23;;;;;;;5.13;1.80;;;6.40;99.90;;;;;;5052091;28;20051;-55
2024/02/26 00:28:48;;;;;;;4.22;1.98;;;6.50;99.90;;;;;;5051282;28;20025;-56
2024/02/26 00:31:14;;;;;;;2.90;1.90;;;6.40;99.90;;;;;;5039460;28;20030;-55
2024/02/26 00:33:40;;;;;;;4.00;1.75;;;6.40;99.90;;;;;;5047019;28;20022;-55
2024/02/26 00:36:06;;;;;;;5.53;2.10;;;6.40;99.90;;;;;;5046330;28;20071;-58
2024/02/26 00:38:31;;;;;;;5.18;2.38;;;6.40;99.90;;;;;;5046487;28;20057;-54
2024/02/26 00:40:57;;;;;;;7.32;2.25;;;6.40;99.90;;;;;;5039839;28;20067;-56
2024/02/26 00:43:23;;;;;;;5.72;2.22;;;6.40;99.90;;;;;;5044633;28;20109;-52
2024/02/26 00:45:48;;;;;;;5.85;2.38;;;6.30;99.90;;;;;;5036042;28;20532;-55
2024/02/26 00:48:14;;;;;;;4.93;2.25;;;6.30;99.90;;;;;;5036631;28;20021;-53
2024/02/26 00:50:40;;;;;;;6.00;1.92;;;6.30;99.90;;;;;;5045425;28;20025;-56
2024/02/26 00:53:05;;;;;;;3.28;2.15;;;6.40;99.90;;;;;;5055491;28;20035;-56
2024/02/26 00:55:31;;;;;;;2.33;2.13;;;6.40;99.90;;;;;;5042727;28;20532;-56
2024/02/26 00:57:57;;;;;;;3.65;2.35;;;6.30;99.90;;;;;;5052955;28;20397;-58
2024/02/26 01:00:22;;;;;;;5.47;2.38;;;6.30;99.90;;;;;;5055579;28;20489;-56
2024/02/26 01:02:48;;;;;;;7.28;2.60;;;6.20;99.90;;;;;;5054402;28;20021;-56
2024/02/26 01:05:16;;;;;;;3.00;2.20;;;6.20;99.90;;;;;;5054762;28;20028;-56
2024/02/26 01:07:42;;;;;;;;;;;6.20;99.90;;;;;;5055482;28;20029;-56
2024/02/26 01:10:08;;;;;;;3.78;2.80;;;6.20;99.90;;;;;;5055133;28;20285;-56
2024/02/26 01:12:34;;;;;;;4.80;2.58;;;6.20;99.90;;;;;;5052520;28;20033;-53
2024/02/26 01:15:03;;;;;;;5.45;3.05;;;6.30;99.90;;;;;;5035065;28;20457;-54
2024/02/26 01:17:29;;;;;;;4.75;2.40;;;6.30;99.90;;;;;;5040215;28;20028;-53
2024/02/26 01:19:55;;;;;;;3.35;2.60;;;6.30;99.90;;;;;;5034992;28;20029;-55
2024/02/26 01:22:21;;;;;;;2.60;2.40;;;6.30;99.90;;;;;;5038031;28;20021;-51
2024/02/26 01:24:46;;;;;;;3.22;2.08;;;6.30;99.90;;;;;;5036874;28;20409;-56
2024/02/26 01:27:14;;;;;;;7.50;3.08;;;6.30;99.90;;;;;;5034683;28;20034;-57
2024/02/26 01:29:40;;;;;;;1.92;1.83;;;6.20;99.90;;;;;;5035541;28;20506;-55
2024/02/26 01:32:06;;;;;;;4.68;3.15;;;6.10;99.90;;;;;;5042012;28;20033;-55
2024/02/26 01:34:32;;;;;;;8.30;3.00;;;6.10;99.90;;;;;;5033328;28;20531;-54
2024/02/26 01:36:57;;;;;;;3.83;2.42;;;6.10;99.90;;;;;;5036739;28;20029;-55
2024/02/26 01:39:23;;;;;;;3.50;2.22;;;6.10;99.90;;;;;;5034159;28;20501;-54
2024/02/26 01:41:49;;;;;;;2.17;1.98;;;6.10;99.90;;;;;;5043062;28;20036;-53
2024/02/26 01:44:15;;;;;;;5.93;3.40;;;6.10;99.90;;;;;;5042179;28;20048;-54
2024/02/26 01:46:41;;;;;;;2.45;2.25;;;6.00;99.90;;;;;;5042572;28;20017;-55
2024/02/26 01:49:11;;;;;;;5.50;3.10;;;6.10;99.90;;;;;;5052384;28;20472;-53
2024/02/26 01:51:39;;;;;;;7.05;3.08;;;6.10;99.90;;;;;;5051942;28;20052;-55
2024/02/26 01:54:06;;;;;;;;;;;6.10;99.90;;;;;;5040152;28;20403;-51
2024/02/26 01:56:33;;;;;;;2.72;2.35;;;6.00;99.90;;;;;;5042059;28;20353;-41
2024/02/26 01:58:59;;;;;;;4.70;3.08;;;6.10;99.90;;;;;;5037956;28;20017;-39
2024/02/26 02:01:27;;;;;;;12.70;2.95;;;6.10;99.90;;;;;;5033760;28;20447;-43
2024/02/26 02:03:54;;;;;;;4.80;3.15;;;6.00;99.90;;;;;;5036268;28;20855;-41
2024/02/26 02:06:20;;;;;;;4.17;3.20;;;5.90;99.90;;;;;;5037546;28;20032;-41
2024/02/26 02:08:46;;;;;;;4.03;2.72;;;6.00;99.90;;;;;;5037555;28;20637;-40
2024/02/26 02:11:12;;;;;;;7.35;3.28;;;6.10;99.90;;;;;;5033210;28;20528;-39
2024/02/26 02:13:38;;;;;;;4.97;2.72;;;6.20;99.90;;;;;;5033981;28;20037;-40
2024/02/26 02:16:04;;;;;;;4.60;3.40;;;6.20;99.90;;;;;;5037552;28;20036;-44
2024/02/26 02:18:30;;;;;;;4.85;2.70;;;6.20;99.90;;;;;;5040650;28;20039;-39
2024/02/26 02:20:59;;;;;;;5.15;2.97;;;6.20;99.90;;;;;;5033756;28;20413;-42
2024/02/26 02:23:25;;;;;;;5.32;3.00;;;6.20;99.90;;;;;;5051229;28;20029;-38
2024/02/26 02:25:51;;;;;;;3.33;2.75;;;6.20;99.90;;;;;;5044539;28;20040;-38
2024/02/26 02:28:17;;;;;;;4.20;2.88;;;6.20;99.90;;;;;;5034208;28;20482;-41
2024/02/26 02:30:42;;;;;;;7.00;3.08;;;6.30;99.90;;;;;;5037890;28;20530;-43
2024/02/26 02:33:08;;;;;;;5.95;3.83;;;6.40;99.90;;;;;;5040368;28;20424;-40
2024/02/26 02:35:34;;;;;;;6.40;3.78;;;6.30;99.90;;;;;;5047951;28;20017;-44
2024/02/26 02:38:00;;;;;;;6.75;3.10;;;6.20;99.90;;;;;;5034110;28;20040;-41
2024/02/26 02:40:25;;;;;;;7.90;4.25;;;6.20;99.90;;;;;;5033425;28;20029;-39
2024/02/26 02:42:51;;;;;;;7.03;3.40;;;6.30;99.90;;;;;;5035766;28;20385;-41
2024/02/26 02:45:16;;;;;;;6.35;3.45;;;6.20;99.90;;;;;;5043497;28;20566;-43
2024/02/26 02:47:42;;;;;;;7.70;3.88;;;6.30;99.90;;;;;;5042103;28;20024;-41
2024/02/26 02:50:08;;;;;;;8.40;4.00;;;6.30;99.90;;;;;;5039026;28;20405;-56
2024/02/26 02:52:34;;;;;;;7.43;3.63;;;6.30;99.90;;;;;;5037605;28;20442;-54
2024/02/26 02:55:00;;;;;;;5.53;2.90;;;6.30;99.90;;;;;;5053225;28;20059;-55
2024/02/26 02:57:26;;;;;;;5.10;3.30;;;6.30;99.90;;;;;;5053232;28;20473;-56
2024/02/26 02:59:54;;;;;;;6.55;3.65;;;6.30;99.90;;;;;;5039861;28;20143;-53
2024/02/26 03:02:20;;;;;;;5.18;3.05;;;6.30;99.90;;;;;;5034067;28;20518;-54
2024/02/26 03:04:46;;;;;;;6.43;3.10;;;6.40;99.90;;;;;;5033252;28;20104;-54
2024/02/26 03:07:11;;;;;;;5.03;3.75;;;6.30;99.90;;;;;;5033820;28;20108;-40
2024/02/26 03:09:37;;;;;;;7.05;3.95;;;6.20;99.90;;;;;;5031618;28;20017;-50
2024/02/26 03:12:03;;;;;;;15.13;3.95;;;6.20;99.90;;;;;;5032946;28;20030;-42
2024/02/26 03:14:28;;;;;;;5.45;3.20;;;6.30;99.90;;;;;;5046312;28;20386;-40
2024/02/26 03:16:55;;;;;;;5.45;3.55;;;6.30;99.90;;;;;;5032955;28;20032;-55
2024/02/26 03:19:21;;;;;;;7.30;4.53;;;6.20;99.90;;;;;;5040253;28;20374;-53
2024/02/26 03:21:46;;;;;;;9.10;4.75;;;6.20;99.90;;;;;;5040358;28;20021;-54
2024/02/26 03:24:12;;;;;;;7.65;4.30;;;6.30;99.90;;;;;;5032549;28;20034;-54
2024/02/26 03:26:38;;;;;;;5.57;3.67;;;6.30;99.90;;;;;;5032656;28;20056;-56
2024/02/26 03:29:04;;;;;;;7.38;4.22;;;6.40;99.90;;;;;;5036282;28;20445;-55
2024/02/26 03:31:30;;;;;;;9.10;4.47;;;6.40;99.90;;;;;;5044950;28;20481;-50
2024/02/26 03:33:56;;;;;;;5.93;3.88;;;6.20;99.90;;;;;;5034370;28;20036;-56
2024/02/26 03:36:21;;;;;;;6.38;4.03;;;6.20;99.90;;;;;;5035312;28;20025;-55
2024/02/26 03:38:48;;;;;;;6.43;4.03;;;6.20;99.90;;;;;;5046593;28;20099;-55
2024/02/26 03:41:14;;;;;;;5.18;3.50;;;6.20;99.90;;;;;;5045893;28;20029;-55
2024/02/26 03:43:39;;;;;;;6.68;4.18;;;6.30;99.90;;;;;;5044634;28;20389;-56
2024/02/26 03:46:10;;;;;;;6.88;3.78;;;6.20;99.90;;;;;;5047065;28;20033;-56
2024/02/26 03:48:35;;;;;;;13.02;4.78;;;6.10;99.90;;;;;;5043022;28;20024;-56
2024/02/26 03:51:01;;;;;;;8.98;4.10;;;6.00;99.90;;;;;;5038904;28;20030;-57
2024/02/26 03:53:27;;;;;;;7.10;4.10;;;5.90;99.90;;;;;;5032935;28;20398;-55
2024/02/26 03:55:55;;;;;;;9.40;4.90;;;5.80;99.90;;;;;;5035936;28;20029;-53
2024/02/26 03:58:21;;;;;;;8.43;4.50;;;5.80;99.90;;;;;;5036654;28;20100;-52
2024/02/26 04:00:50;;;;;;;9.57;4.05;;;5.80;99.90;;;;;;5044634;28;20275;-55
2024/02/26 04:03:15;;;;;;;6.95;4.28;;;5.80;99.90;;;;;;5036896;28;20501;-54
2024/02/26 04:05:41;;;;;;;6.55;4.22;;;5.90;99.90;;;;;;5036629;28;20136;-52
2024/02/26 04:08:07;;;;;;;5.43;3.55;;;5.90;99.90;;;;;;5037764;28;20030;-56
2024/02/26 04:10:35;;;;;;;9.25;4.50;;;5.90;99.90;;;;;;5036875;28;20098;-56
2024/02/26 04:13:01;;;;;;;6.57;4.43;;;5.90;99.90;;;;;;5036140;28;20075;-56
2024/02/26 04:15:26;;;;;;;9.65;4.82;;;6.00;99.90;;;;;;5042814;28;20025;-58
2024/02/26 04:17:52;;;;;;;11.35;5.50;;;6.00;99.90;;;;;;5036080;28;20033;-55
2024/02/26 04:20:17;;;;;;;7.00;3.83;;;6.00;99.90;;;;;;5036449;28;20029;-51
2024/02/26 04:22:43;;;;;;;7.93;4.15;;;6.00;99.90;;;;;;5036421;28;20087;-55
2024/02/26 04:25:09;;;;;;;10.02;4.75;;;5.90;99.90;;;;;;5036107;28;20026;-55
2024/02/26 04:27:35;;;;;;;8.60;4.50;;;6.00;99.90;;;;;;5036364;28;20039;-56
2024/02/26 04:30:00;;;;;;;9.13;4.95;;;6.10;99.90;;;;;;5040980;28;20037;-56
2024/02/26 04:32:27;;;;;;;8.73;5.25;;;6.00;99.90;;;;;;5046807;28;20528;-53
2024/02/26 04:34:53;;;;;;;8.93;5.07;;;5.90;99.90;;;;;;5041183;28;20505;-55
2024/02/26 04:37:19;;;;;;;10.52;5.53;;;6.00;99.90;;;;;;5048463;28;20115;-57
2024/02/26 04:39:45;;;;;;;11.52;4.70;;;5.80;99.90;;;;;;5055865;28;20063;-56
2024/02/26 04:42:11;;;;;;;9.63;5.05;;;5.90;99.90;;;;;;5043895;28;20030;-58
2024/02/26 04:44:36;;;;;;;7.95;5.07;;;5.90;99.90;;;;;;5050396;28;20480;-55
2024/02/26 04:47:02;;;;;;;11.43;5.35;;;5.90;99.90;;;;;;5053620;28;20024;-57
2024/02/26 04:49:28;;;;;;;8.82;4.82;;;5.90;99.90;;;;;;5039242;28;20505;-40
2024/02/26 04:51:54;;;;;;;12.52;5.43;;;5.80;99.90;;;;;;5039046;28;20486;-49
2024/02/26 04:54:20;;;;;;;11.10;5.45;;;5.80;99.90;;;;;;5051967;28;20025;-38
2024/02/26 04:56:46;;;;;;;11.57;5.13;;;5.80;99.90;;;;;;5053810;28;20025;-39
2024/02/26 04:59:12;;;;;;;11.30;5.85;;;5.80;99.90;;;;;;5047490;28;20128;-39
2024/02/26 05:01:39;;;;;;;10.95;5.53;;;5.90;99.90;;;;;;5042200;28;20420;-41
2024/02/26 05:04:04;;;;;;;9.50;5.38;;;5.90;99.90;;;;;;5040633;28;20021;-43
2024/02/26 05:06:30;;;;;;;13.27;5.85;;;5.90;99.90;;;;;;5035267;28;20488;-42
2024/02/26 05:08:56;;;;;;;10.70;5.55;;;5.90;99.90;;;;;;5034814;28;20075;-50
2024/02/26 05:11:21;;;;;;;11.43;6.00;;;6.00;99.90;;;;;;5035124;28;20033;-54
2024/02/26 05:13:48;;;;;;;9.50;5.13;;;6.10;99.90;;;;;;5034114;28;20044;-56
2024/02/26 05:16:13;;;;;;;8.75;5.10;;;6.10;99.90;;;;;;5039199;28;20414;-54
2024/02/26 05:18:39;;;;;;;10.80;5.85;;;6.10;99.90;;;;;;5042785;28;20025;-55
2024/02/26 05:21:05;;;;;;;8.57;5.15;;;6.00;99.90;;;;;;5045686;28;20025;-54
2024/02/26 05:23:30;;;;;;;9.18;5.43;;;5.90;99.90;;;;;;5041705;28;20032;-53
2024/02/26 05:25:56;;;;;;;10.63;5.43;;;5.90;99.90;;;;;;5050266;28;20390;-54
2024/02/26 05:28:22;;;;;;;9.07;5.03;;;5.90;99.90;;;;;;5044867;28;20499;-40
2024/02/26 05:30:48;;;;;;;9.38;4.75;;;5.80;99.90;;;;;;5053072;28;20045;-40
2024/02/26 05:33:14;;;;;;;14.93;5.35;;;5.90;99.90;;;;;;5044895;28;20029;-39
2024/02/26 05:35:40;;;;;;;9.30;4.45;;;6.00;99.90;;;;;;5046660;28;20025;-41
2024/02/26 05:38:06;;;;;;;9.88;5.25;;;6.00;99.90;;;;;;5049529;28;20032;-45
2024/02/26 05:40:31;;;;;;;9.95;5.43;;;6.00;99.90;;;;;;5043289;28;20432;-42
2024/02/26 05:42:57;;;;;;;13.05;5.88;;;6.00;99.90;;;;;;5051832;28;20025;-39
2024/02/26 05:45:23;;;;;;;8.05;4.70;;;6.00;99.90;;;;;;5043877;28;20032;-40
2024/02/26 05:47:49;;;;;;;11.32;5.22;;;6.00;99.90;;;;;;5038021;28;20025;-42
2024/02/26 05:50:15;;;;;;;10.70;5.28;;;5.90;99.90;;;;;;5041546;28;20057;-40
2024/02/26 05:52:41;;;;;;;11.40;5.53;;;5.90;99.90;;;;;;5050355;28;20452;-45
2024/02/26 05:55:07;;;;;;;9.95;5.07;;;5.80;99.90;;;;;;5036920;28;20034;-41
2024/02/26 05:57:34;;;;;;;9.68;5.38;;;5.70;99.90;;;;;;5041990;28;20474;-45
2024/02/26 06:00:03;;;;;;;8.80;5.03;;;5.80;99.90;;;;;;5052358;28;20402;-46
2024/02/26 06:02:30;;;;;;;11.02;5.70;;;5.80;99.90;;;;;;5041714;28;20028;-43
2024/02/26 06:04:56;;;;;;;8.68;4.78;;;5.80;99.90;;;;;;5034282;28;20040;-42
2024/02/26 06:07:22;;;;;;;12.10;6.05;;;5.80;99.90;;;;;;5037621;28;20022;-50
2024/02/26 06:09:48;;;;;;;10.15;5.05;;;5.80;99.90;;;;;;5050457;28;20477;-40
2024/02/26 06:12:14;;;;;;;11.10;5.55;;;5.80;99.90;;;;;;5039414;28;20037;-41
2024/02/26 06:14:39;;;;;;;9.65;5.45;;;5.90;99.90;;;;;;5050363;28;20025;-40
2024/02/26 06:17:07;;;;;;;9.80;5.30;;;5.90;99.90;;;;;;5036393;28;20033;-45
2024/02/26 06:19:32;;;;;;;14.38;6.25;;;5.90;99.90;;;;;;5041605;28;20123;-40
2024/02/26 06:21:58;;;;;;;11.85;6.10;;;5.90;99.90;;;;;;5035685;28;20055;-44
2024/02/26 06:24:23;;;;;;;12.93;6.18;;;5.80;99.90;;;;;;5042875;28;20033;-39
2024/02/26 06:26:49;;;;;;;8.95;5.20;;;5.90;99.90;;;;;;5045552;28;20067;-39
2024/02/26 06:29:15;;;;;;;13.40;6.47;;;5.90;99.90;;;;;;5045095;28;20029;-39
2024/02/26 06:31:40;;;;;;;15.10;7.18;;;5.90;99.90;;;;;;5039939;28;20023;-42
2024/02/26 06:34:06;;;;;;;11.70;6.15;;;5.90;99.90;;;;;;5034594;28;20036;-38
2024/02/26 06:36:33;;;;;;;14.90;6.57;;;5.90;99.90;;;;;;5042241;28;20386;-38
2024/02/26 06:38:58;;;;;;;12.88;6.47;;;6.00;99.90;;;;;;5040699;28;20025;-54
2024/02/26 06:41:29;;;;;;;15.80;6.43;;;6.00;99.90;;;;;;5037694;28;20424;-54
2024/02/26 06:43:55;;;;;;;14.40;6.40;;;6.00;99.90;;;;;;5037963;28;20483;-56
2024/02/26 06:46:21;;;;;;;16.42;7.20;;;6.00;99.90;;;;;;5044569;28;20024;-55
2024/02/26 06:48:48;;;;;;;17.88;7.38;;;5.90;99.90;;;;;;5050756;28;20108;-56
2024/02/26 06:51:14;;;;;;;12.97;6.03;;;5.90;99.90;;;;;;5043079;28;20020;-55
2024/02/26 06:53:40;;;;;;;18.33;6.93;;;5.90;99.90;;;;;;5037305;28;20035;-55
2024/02/26 06:56:05;;;;;;;17.35;7.78;;;5.90;99.90;;;;;;5046796;28;20033;-53
2024/02/26 06:58:31;;;;;;;17.80;8.30;;;5.90;99.90;;;;;;5033501;28;20037;-53
2024/02/26 07:00:57;;;;;;;19.52;8.90;;;5.90;99.90;;;;;;5027398;28;20432;-54
2024/02/26 07:03:24;;;;;;;18.55;8.70;;;5.90;99.90;;;;;;5035579;28;20071;-56
2024/02/26 07:05:50;;;;;;;20.30;8.38;;;6.00;99.90;;;;;;5032539;28;20029;-54
2024/02/26 07:08:16;;;;;;;23.27;9.13;;;5.80;99.90;;;;;;5033275;28;20083;-54
2024/02/26 07:10:43;;;;;;;20.50;8.48;;;5.80;99.90;;;;;;5036789;28;20021;-57
2024/02/26 07:13:09;;;;;;;20.73;9.30;;;5.90;99.90;;;;;;5037081;28;20482;-54
2024/02/26 07:15:34;;;;;;;22.23;9.20;;;5.80;99.90;;;;;;5032881;28;20028;-56
2024/02/26 07:18:03;;;;;;;25.30;10.00;;;5.90;99.90;;;;;;5032873;28;20052;-54
2024/02/26 07:20:31;;;;;;;;;;;5.80;99.90;;;;;;5033297;28;20548;-54
2024/02/26 07:22:57;;;;;;;20.80;9.68;;;5.80;99.90;;;;;;5032819;28;20344;-55
2024/02/26 07:25:24;;;;;;;22.52;9.85;;;5.80;99.90;;;;;;5042404;28;20074;-54
2024/02/26 07:27:50;;;;;;;24.38;10.10;;;5.70;99.90;;;;;;5053023;28;20158;-58
2024/02/26 07:30:16;;;;;;;23.05;10.05;;;5.80;99.90;;;;;;5051908;28;20037;-54
2024/02/26 07:32:42;;;;;;;22.60;10.73;;;5.80;99.90;;;;;;5050958;28;20139;-54
2024/02/26 07:35:08;;;;;;;22.27;10.43;;;5.80;99.90;;;;;;5052630;28;20041;-54
2024/02/26 07:37:34;;;;;;;24.90;11.25;;;5.80;99.90;;;;;;5038319;28;20129;-54
2024/02/26 07:40:00;;;;;;;22.70;11.05;;;5.80;99.90;;;;;;5032518;28;20036;-57
2024/02/26 07:42:25;;;;;;;23.40;9.90;;;5.70;99.90;;;;;;5048978;28;20124;-56
2024/02/26 07:44:52;;;;;;;22.02;9.63;;;5.80;99.90;;;;;;5052829;28;20468;-52
2024/02/26 07:47:18;;;;;;;25.30;11.55;;;5.70;99.90;;;;;;5051801;28;20029;-43
2024/02/26 07:49:44;;;;;;;21.80;8.93;;;5.80;99.90;;;;;;5052417;28;20036;-39
2024/02/26 07:52:10;;;;;;;20.92;9.57;;;5.80;99.90;;;;;;5052430;28;20067;-41
2024/02/26 07:54:36;;;;;;;24.13;9.82;;;5.80;99.90;;;;;;5052451;28;20116;-40
2024/02/26 07:57:05;;;;;;;20.02;9.43;;;5.80;99.90;;;;;;5048968;28;20497;-39
2024/02/26 07:59:31;;;;;;;24.55;9.30;;;5.80;99.90;;;;;;5032690;28;20504;-39
2024/02/26 08:01:57;;;;;;;20.20;8.63;;;5.80;99.90;;;;;;5038559;28;20535;-41
2024/02/26 08:04:23;;;;;;;20.48;9.13;;;5.80;99.90;;;;;;5050247;28;20029;-43
2024/02/26 08:06:48;;;;;;;20.58;10.02;;;5.80;99.90;;;;;;5052331;28;20036;-39
2024/02/26 08:09:14;;;;;;;19.60;8.73;;;5.70;99.90;;;;;;5052275;28;20025;-38
2024/02/26 08:11:40;;;;;;;16.88;7.63;;;5.80;99.90;;;;;;5052513;28;20107;-38
2024/02/26 08:14:05;;;;;;;15.35;8.07;;;5.90;99.90;;;;;;5037355;28;20549;-44
2024/02/26 08:16:31;;;;;;;15.25;6.70;;;5.90;99.90;;;;;;5033098;28;20394;-38
2024/02/26 08:18:57;;;;;;;18.65;7.65;;;5.80;99.90;;;;;;5052243;28;20040;-46
2024/02/26 08:21:23;;;;;;;14.35;7.07;;;5.80;99.90;;;;;;5050900;28;20037;-41
2024/02/26 08:23:49;;;;;;;14.32;6.85;;;5.70;99.90;;;;;;5052028;28;20083;-44
2024/02/26 08:26:14;;;;;;;14.00;6.82;;;5.70;99.90;;;;;;5051950;28;20052;-44
2024/02/26 08:28:40;;;;;;;13.75;6.47;;;5.80;99.90;;;;;;5050428;28;20030;-44
2024/02/26 08:31:06;;;;;;;11.88;6.68;;;5.80;99.90;;;;;;5050864;28;20112;-39
2024/02/26 08:33:33;;;;;;;14.85;7.50;;;5.80;99.90;;;;;;5032381;28;20053;-39
2024/02/26 08:35:59;;;;;;;14.65;7.00;;;5.80;99.90;;;;;;5032402;28;20022;-42
2024/02/26 08:38:25;;;;;;;11.85;6.38;;;5.80;99.90;;;;;;5032113;28;20100;-43
2024/02/26 08:40:50;;;;;;;12.13;6.05;;;5.70;99.90;;;;;;5033759;28;20025;-40
2024/02/26 08:43:16;;;;;;;11.98;5.70;;;5.70;99.90;;;;;;5034196;28;20393;-40
2024/02/26 08:45:42;;;;;;;10.85;5.43;;;5.80;99.90;;;;;;5034521;28;20025;-40
2024/02/26 08:48:07;;;;;;;10.70;5.30;;;5.80;99.90;;;;;;5047529;28;20064;-40
2024/02/26 08:50:33;;;;;;;8.15;4.63;;;5.90;99.90;;;;;;5046814;28;20112;-41
2024/02/26 08:53:01;;;;;;;10.30;5.20;;;5.90;99.90;;;;;;5035900;28;20021;-39
2024/02/26 08:55:26;;;;;;;10.38;4.90;;;5.90;99.90;;;;;;5035670;28;20017;-41
2024/02/26 08:57:52;;;;;;;11.00;5.20;;;6.00;99.90;;;;;;5035471;28;20062;-55
2024/02/26 09:00:20;;;;;;;11.27;5.93;;;6.00;99.90;;;;;;5047859;28;20497;-54
2024/02/26 09:02:47;;;;;;;9.52;4.85;;;6.10;99.90;;;;;;5053584;28;20068;-53
2024/02/26 09:05:13;;;;;;;9.30;5.05;;;6.00;99.90;;;;;;5042070;28;20473;-55
2024/02/26 09:07:38;;;;;;;8.52;4.88;;;5.90;99.90;;;;;;5038796;28;20093;-55
2024/02/26 09:10:05;;;;;;;7.43;4.10;;;6.00;99.90;;;;;;5033986;28;20433;-56
2024/02/26 09:12:31;;;;;;;7.70;4.30;;;6.00;99.90;;;;;;5035468;28;20532;-48
2024/02/26 09:14:57;;;;;;;11.75;5.32;;;6.00;99.90;;;;;;5035020;28;20037;-55
2024/02/26 09:17:23;;;;;;;8.07;4.18;;;6.10;99.90;;;;;;5045594;28;20075;-53
2024/02/26 09:19:48;;;;;;;8.50;3.88;;;6.20;99.90;;;;;;5036973;28;20041;-55
2024/02/26 09:22:14;;;;;;;10.73;4.13;;;6.00;99.90;;;;;;5034983;28;20543;-55
2024/02/26 09:24:40;;;;;;;6.68;3.83;;;6.00;99.90;;;;;;5034951;28;20041;-55
2024/02/26 09:27:06;;;;;;;7.95;4.40;;;6.10;99.90;;;;;;5034727;28;20410;-54
2024/02/26 09:29:32;;;;;;;7.65;3.70;;;6.10;99.90;;;;;;5038337;28;20029;-54
2024/02/26 09:31:58;;;;;;;6.93;4.10;;;6.00;99.90;;;;;;5041505;28;20543;-51
2024/02/26 09:34:24;;;;;;;6.45;3.53;;;6.10;99.90;;;;;;5055020;28;20021;-55
2024/02/26 09:36:49;;;;;;;6.70;3.88;;;6.00;99.90;;;;;;5054895;28;20480;-54
2024/02/26 09:39:20;;;;;;;5.43;3.35;;;6.00;99.90;;;;;;5050901;28;20048;-53
2024/02/26 09:41:46;;;;;;;6.43;3.70;;;5.90;99.90;;;;;;5037183;28;20111;-55
2024/02/26 09:44:15;;;;;;;10.10;4.25;;;5.90;99.90;;;;;;5034948;28;20080;-54
2024/02/26 09:46:41;;;;;;;5.90;3.47;;;5.80;99.90;;;;;;5037089;28;20033;-51
2024/02/26 09:49:08;;;;;;;6.28;3.40;;;5.90;99.90;;;;;;5054307;28;20389;-56
2024/02/26 09:51:34;;;;;;;7.28;3.50;;;5.90;99.90;;;;;;5052249;28;20473;-56
2024/02/26 09:54:01;;;;;;;9.40;3.50;;;5.90;99.90;;;;;;5054123;28;20112;-61
2024/02/26 09:56:27;;;;;;;5.65;3.45;;;5.90;99.90;;;;;;5052865;28;20116;-48
2024/02/26 09:58:55;;;;;;;5.63;3.28;;;5.90;99.90;;;;;;5034211;28;20022;-51
2024/02/26 10:01:24;;;;;;;5.72;3.25;;;5.90;99.90;;;;;;5052071;28;20520;-54
2024/02/26 10:03:53;;;;;;;;;;;6.00;99.90;;;;;;5052867;28;20033;-52
2024/02/26 10:06:19;;;;;;;7.25;3.67;;;6.00;99.90;;;;;;5046748;28;19912;-52
2024/02/26 10:08:45;;;;;;;4.40;2.92;;;6.10;99.90;;;;;;5054294;28;20044;-39
2024/02/26 10:11:13;;;;;;;8.00;4.03;;;6.00;99.90;;;;;;5036931;28;20026;-48
2024/02/26 10:13:39;;;;;;;6.88;3.85;;;6.00;99.90;;;;;;5034199;28;20470;-40
2024/02/26 10:16:06;;;;;;;5.30;2.70;;;6.00;99.90;;;;;;5034238;28;20025;-38
2024/02/26 10:18:48;;;;;;;5.20;2.97;;;6.00;99.90;;;;;;5047700;28;20108;-38
2024/02/26 10:21:17;;;;;;;5.90;3.30;;;6.00;99.90;;;;;;5053918;28;20760;-40
2024/02/26 10:23:44;;;;;;;6.82;3.78;;;5.90;99.90;;;;;;5052117;28;20079;-39
2024/02/26 10:26:12;;;;;;;10.55;3.88;;;5.90;99.90;;;;;;5037854;28;20045;-39
2024/02/26 10:28:39;;;;;;;6.15;3.50;;;5.90;99.90;;;;;;5047573;28;20544;-40
2024/02/26 10:31:04;;;;;;;5.25;3.53;;;5.90;99.90;;;;;;5052407;28;20025;-39
2024/02/26 10:33:33;;;;;;;5.13;3.63;;;5.90;99.90;;;;;;5051890;28;20036;-39
2024/02/26 10:35:59;;;;;;;10.20;3.45;;;5.90;99.90;;;;;;5053696;28;20477;-39
2024/02/26 10:38:24;;;;;;;9.52;3.88;;;5.90;99.90;;;;;;5053727;28;20150;-40
2024/02/26 10:40:50;;;;;;;8.55;4.05;;;5.90;99.90;;;;;;5053609;28;20025;-42
2024/02/26 10:43:16;;;;;;;7.43;3.33;;;5.80;99.90;;;;;;5041966;28;20032;-40
2024/02/26 10:45:42;;;;;;;12.20;4.40;;;5.90;99.90;;;;;;5033515;28;20061;-40
2024/02/26 10:48:18;;;;;;;5.20;3.08;;;5.90;99.90;;;;;;5039313;28;20077;-39
2024/02/26 10:50:44;;;;;;;7.55;4.00;;;5.90;99.90;;;;;;5053403;28;20032;-42
2024/02/26 10:53:36;;;;;;;6.05;3.53;;;6.00;99.90;;;;;;5040940;28;20363;-40
2024/02/26 10:56:05;;;;;;;5.25;3.38;;;5.90;99.90;;;;;;5032203;28;20515;-42
2024/02/26 10:58:31;;;;;;;5.65;3.53;;;6.00;99.90;;;;;;5033246;28;20512;-41
2024/02/26 11:00:58;;;;;;;9.15;3.70;;;6.00;99.90;;;;;;5033280;28;20064;-44
2024/02/26 11:03:25;;;;;;;6.93;3.58;;;6.10;99.90;;;;;;5046049;28;20074;-44
2024/02/26 11:05:51;;;;;;;7.00;3.97;;;6.00;99.90;;;;;;5053131;28;20381;-39
2024/02/26 11:08:21;;;;;;;5.78;3.45;;;6.00;99.90;;;;;;5053079;28;20025;-41
2024/02/26 11:10:52;;;;;;;5.75;3.38;;;6.10;99.90;;;;;;5053338;28;20021;-40
2024/02/26 11:13:19;;;;;;;5.63;3.55;;;6.10;99.90;;;;;;5039309;28;20087;-41
2024/02/26 11:15:48;;;;;;;7.53;4.10;;;6.10;99.90;;;;;;5033186;28;20033;-38
2024/02/26 11:18:15;;;;;;;5.00;3.17;;;6.10;99.90;;;;;;5048636;28;20572;-59
2024/02/26 11:20:42;;;;;;;6.63;3.83;;;6.10;99.90;;;;;;5033277;28;20116;-54
2024/02/26 11:23:08;;;;;;;8.13;4.05;;;6.20;99.90;;;;;;5032797;28;20116;-53
2024/02/26 11:25:36;;;;;;;8.40;3.78;;;6.30;99.90;;;;;;5038210;28;20465;-54
2024/02/26 11:28:06;;;;;;;5.80;3.55;;;6.40;99.90;;;;;;5042225;28;20021;-53
2024/02/26 11:30:35;;;;;;;12.25;4.18;;;6.50;99.90;;;;;;5052730;28;20075;-53
2024/02/26 11:33:01;;;;;;;6.72;3.63;;;6.50;99.90;;;;;;5046329;28;20035;-53
2024/02/26 11:35:29;;;;;;;8.07;3.60;;;6.40;99.90;;;;;;5053009;28;20052;-53
2024/02/26 11:37:56;;;;;;;6.05;3.92;;;6.40;99.90;;;;;;5052667;28;20529;-54
2024/02/26 11:40:25;;;;;;;8.10;4.20;;;6.40;99.90;;;;;;5049862;28;20025;-54
2024/02/26 11:42:53;;;;;;;6.90;4.13;;;6.30;99.90;;;;;;5032619;28;20033;-54
2024/02/26 11:45:42;;;;;;;7.13;4.05;;;6.30;99.90;;;;;;5032528;28;20025;-55
2024/02/26 11:48:20;;;;;;;6.22;3.33;;;6.30;99.90;;;;;;5048995;28;20504;-53
2024/02/26 11:50:50;;;;;;;5.82;3.50;;;6.30;99.90;;;;;;5050825;28;20021;-53
2024/02/26 11:53:35;;;;;;;4.80;3.35;;;6.40;99.90;;;;;;5050802;28;20102;-52
2024/02/26 11:56:26;;;;;;;6.57;3.80;;;6.50;99.90;;;;;;5051685;28;20078;-53
2024/02/26 11:59:21;;;;;;;6.50;3.13;;;6.40;99.90;;;;;;5032704;28;20041;-54
2024/02/26 12:01:48;;;;;;;8.88;3.55;;;6.40;99.90;;;;;;5032763;28;20025;-54
2024/02/26 12:04:26;;;;;;;5.28;3.35;;;6.50;99.90;;;;;;5051244;28;20032;-52
2024/02/26 12:06:56;;;;;;;7.72;4.30;;;6.50;99.90;;;;;;5032207;28;20096;-54
2024/02/26 12:09:38;;;;;;;6.60;3.50;;;6.50;99.90;;;;;;5032736;28;20478;-55
2024/02/26 12:12:09;;;;;;;5.05;2.80;;;6.50;99.90;;;;;;5031093;28;20021;-54
2024/02/26 12:14:51;;;;;;;8.60;3.78;;;6.50;99.90;;;;;;5037441;28;20029;-53
2024/02/26 12:17:24;;;;;;;9.25;4.45;;;6.50;99.90;;;;;;5051690;28;20036;-53
2024/02/26 12:19:51;;;;;;;6.28;3.45;;;6.50;99.90;;;;;;5056323;28;20029;-54
2024/02/26 12:22:17;;;;;;;9.70;4.10;;;6.50;99.90;;;;;;5056437;28;20648;-54
2024/02/26 12:24:46;;;;;;;4.85;2.85;;;6.60;99.90;;;;;;5044809;28;20014;-54
2024/02/26 12:27:12;;;;;;;5.82;3.40;;;6.50;99.90;;;;;;5039001;28;20485;-53
2024/02/26 12:29:38;;;;;;;5.80;3.63;;;6.50;99.90;;;;;;5036034;28;20026;-53
2024/02/26 12:32:05;;;;;;;4.38;3.10;;;6.50;99.90;;;;;;5045507;28;20049;-54
2024/02/26 12:34:31;;;;;;;5.07;3.03;;;6.50;99.90;;;;;;5055995;28;20424;-53
2024/02/26 12:36:57;;;;;;;3.75;2.70;;;6.60;99.90;;;;;;5051991;28;20523;-53
2024/02/26 12:39:23;;;;;;;8.07;3.70;;;6.70;99.90;;;;;;5035786;28;20028;-54
2024/02/26 12:41:49;;;;;;;5.68;3.35;;;6.70;99.90;;;;;;5039691;28;20100;-54
2024/02/26 12:44:24;;;;;;;8.80;3.58;;;6.70;99.90;;;;;;5055735;28;20029;-54
2024/02/26 12:46:49;;;;;;;6.03;3.67;;;6.70;99.90;;;;;;5053543;28;20029;-54
2024/02/26 12:49:17;;;;;;;4.82;3.00;;;6.60;99.90;;;;;;5055696;28;20370;-54
2024/02/26 12:51:44;;;;;;;8.63;3.55;;;6.60;99.90;;;;;;5053731;28;20030;-54
2024/02/26 12:54:10;;;;;;;6.47;3.60;;;6.80;99.90;;;;;;5038131;28;20401;-42